Time;durP1;ratioP1;P1;durP2;ratioP2;P2;SDS_P1;SDS_P2;PMS_P1;PMS_P2;Temp;Humidity;BMP_temperature;BMP_pressure;BME280_temperature;BME280_humidity;BME280_pressure;Samples;Min_cycle;Max_cycle;Signal;HPM_P1;HPM_P2
2022/07/21 00:02:01;;;;;;;9.30;8.60;;;;;;;24.41;46.79;100545.88;5074991;28;20212;-77
2022/07/21 00:04:28;;;;;;;9.17;8.30;;;;;;;24.29;47.32;100522.78;5075095;28;20205;-77
2022/07/21 00:06:54;;;;;;;14.23;8.67;;;;;;;24.34;47.36;100509.94;5074865;28;20224;-77
2022/07/21 00:09:21;;;;;;;9.00;8.30;;;;;;;24.34;47.68;100501.94;5074881;28;20294;-77
2022/07/21 00:11:48;;;;;;;9.63;8.77;;;;;;;24.48;47.53;100493.75;5074869;28;20739;-77
2022/07/21 00:14:14;;;;;;;9.50;8.90;;;;;;;24.38;47.78;100490.94;5075014;28;20213;-77
2022/07/21 00:16:43;;;;;;;10.23;9.20;;;;;;;24.27;48.47;100492.72;5074402;28;20209;-76
2022/07/21 00:19:09;;;;;;;9.77;9.13;;;;;;;24.08;48.92;100486.09;5074853;28;20758;-76
2022/07/21 00:21:36;;;;;;;9.93;8.97;;;;;;;23.97;49.33;100451.38;5074597;28;20213;-77
2022/07/21 00:24:03;;;;;;;9.90;9.00;;;;;;;23.91;49.91;100438.50;5074558;28;20205;-76
2022/07/21 00:26:29;;;;;;;10.37;9.53;;;;;;;23.89;50.15;100456.44;5074393;28;20232;-78
2022/07/21 00:28:56;;;;;;;9.47;8.70;;;;;;;23.86;50.20;100464.66;5074318;28;20732;-76
2022/07/21 00:31:22;;;;;;;9.67;8.87;;;;;;;23.83;50.76;100468.41;5074090;28;20250;-76
2022/07/21 00:33:51;;;;;;;10.33;9.43;;;;;;;23.86;50.67;100460.16;5074028;28;20611;-77
2022/07/21 00:36:17;;;;;;;9.80;9.10;;;;;;;23.88;50.93;100458.22;5073506;28;20589;-76
2022/07/21 00:38:44;;;;;;;9.57;8.83;;;;;;;23.82;51.56;100457.84;5073792;28;20619;-76
2022/07/21 00:41:10;;;;;;;10.87;9.97;;;;;;;23.85;51.86;100449.63;5074089;28;20204;-77
2022/07/21 00:43:37;;;;;;;9.87;9.13;;;;;;;23.78;52.23;100439.44;5073952;28;20201;-77
2022/07/21 00:46:03;;;;;;;10.07;9.27;;;;;;;23.79;52.05;100441.13;5073439;28;20201;-77
2022/07/21 00:48:30;;;;;;;10.23;9.23;;;;;;;23.86;52.10;100444.16;5073480;28;20278;-77
2022/07/21 00:50:57;;;;;;;9.27;8.60;;;;;;;23.73;52.22;100444.22;5072712;28;20736;-76
2022/07/21 00:53:25;;;;;;;10.30;9.50;;;;;;;23.52;52.90;100430.63;5073707;28;20283;-77
2022/07/21 00:55:51;;;;;;;9.80;9.00;;;;;;;23.38;53.43;100413.00;5073516;28;20192;-77
2022/07/21 00:58:18;;;;;;;9.33;8.43;;;;;;;23.41;53.34;100403.94;5073288;28;20685;-78
2022/07/21 01:00:44;;;;;;;9.57;8.87;;;;;;;23.35;53.81;100413.25;5073634;28;20579;-77
2022/07/21 01:03:11;;;;;;;7.67;6.97;;;;;;;23.43;55.52;100367.41;5073356;28;20238;-77
2022/07/21 01:05:37;;;;;;;7.50;6.80;;;;;;;23.43;56.75;100316.78;5073497;28;20250;-77
2022/07/21 01:08:06;;;;;;;6.37;5.77;;;;;;;23.44;58.22;100256.34;5073336;28;20217;-77
2022/07/21 01:10:33;;;;;;;5.10;4.07;;;;;;;23.65;58.68;100230.72;5072493;28;20297;-77
2022/07/21 01:13:00;;;;;;;4.10;3.80;;;;;;;23.54;59.76;100210.22;5072676;28;20448;-78
2022/07/21 01:15:27;;;;;;;5.27;3.67;;;;;;;23.67;59.61;100201.28;5072032;28;20326;-77
2022/07/21 01:17:53;;;;;;;4.97;3.73;;;;;;;23.68;59.85;100203.81;5072657;28;20205;-77
2022/07/21 01:20:22;;;;;;;3.70;3.40;;;;;;;23.60;60.94;100172.44;5073643;28;20233;-77
2022/07/21 01:22:53;;;;;;;3.10;2.90;;;;;;;23.44;62.16;100155.94;5073595;28;20200;-77
2022/07/21 01:25:20;;;;;;;2.53;2.33;;;;;;;23.33;62.94;100151.47;5073016;28;20209;-77
2022/07/21 01:27:47;;;;;;;2.47;2.27;;;;;;;23.13;63.75;100153.00;5073406;28;20233;-76
2022/07/21 01:30:14;;;;;;;2.33;2.23;;;;;;;23.17;63.82;100162.44;5073580;28;20242;-77
2022/07/21 01:32:42;;;;;;;2.60;2.20;;;;;;;23.24;63.34;100165.47;5073355;28;20674;-77
2022/07/21 01:35:11;;;;;;;2.67;2.57;;;;;;;23.16;64.13;100182.03;5073335;28;20208;-77
2022/07/21 01:37:40;;;;;;;2.43;2.23;;;;;;;22.74;66.02;100155.00;5073442;28;20201;-76
2022/07/21 01:42:54;;;;;;;2.50;2.30;;;;;;;22.72;66.16;100138.28;5073362;28;20205;-77
2022/07/21 01:45:22;;;;;;;2.27;2.07;;;;;;;22.93;65.22;100146.47;5073112;28;20196;-77
2022/07/21 01:47:48;;;;;;;2.70;2.50;;;;;;;22.88;65.61;100172.59;5072928;28;20251;-77
2022/07/21 01:50:14;;;;;;;4.17;2.40;;;;;;;22.59;67.03;100194.19;5073028;28;20228;-77
2022/07/21 01:52:41;;;;;;;2.30;2.20;;;;;;;22.48;67.54;100190.66;5073216;28;20626;-77
2022/07/21 01:55:09;;;;;;;2.10;2.00;;;;;;;22.80;66.33;100186.47;5072486;28;20209;-77
2022/07/21 01:57:35;;;;;;;2.57;2.37;;;;;;;22.77;66.68;100225.75;5072829;28;20196;-77
2022/07/21 02:00:02;;;;;;;2.87;2.17;;;;;;;22.49;68.21;100221.59;5072922;28;20346;-77
2022/07/21 02:02:29;;;;;;;2.40;2.30;;;;;;;22.50;69.12;100218.84;5072716;28;20232;-77
2022/07/21 02:04:55;;;;;;;3.27;2.20;;;;;;;22.58;69.49;100203.16;5072448;28;20211;-77
2022/07/21 02:07:22;;;;;;;2.20;2.10;;;;;;;22.52;70.68;100216.06;5072767;28;20221;-76
2022/07/21 02:09:48;;;;;;;2.60;2.30;;;;;;;22.09;72.73;100165.94;5072446;28;20232;-76
2022/07/21 02:12:16;;;;;;;2.40;2.30;;;;;;;21.85;75.66;100094.97;5072867;28;20266;-77
2022/07/21 02:14:42;;;;;;;2.40;2.20;;;;;;;21.84;76.25;100100.38;5072362;28;20255;-78
2022/07/21 02:17:09;;;;;;;2.40;2.20;;;;;;;21.58;77.97;100085.34;5072399;28;20686;-76
2022/07/21 02:19:35;;;;;;;2.73;2.53;;;;;;;21.57;78.05;100094.28;5072572;28;20274;-77
2022/07/21 02:22:02;;;;;;;2.40;2.20;;;;;;;21.50;78.45;100124.03;5072587;28;20201;-76
2022/07/21 02:24:28;;;;;;;3.17;2.33;;;;;;;21.60;78.24;100141.00;5072260;28;20212;-77
2022/07/21 02:26:55;;;;;;;2.50;2.30;;;;;;;21.24;80.07;100139.91;5071997;28;20224;-76
2022/07/21 02:29:22;;;;;;;2.40;2.27;;;;;;;20.95;81.56;100136.56;5072038;28;20262;-76
2022/07/21 02:31:49;;;;;;;2.57;2.47;;;;;;;20.69;82.63;100162.19;5072509;28;20242;-77
2022/07/21 02:34:16;;;;;;;2.87;2.67;;;;;;;20.55;83.29;100201.03;5072460;28;20235;-76
2022/07/21 02:36:42;;;;;;;2.37;2.17;;;;;;;20.68;82.80;100251.53;5072153;28;20205;-77
2022/07/21 02:39:09;;;;;;;2.70;2.50;;;;;;;20.73;83.26;100275.09;5071920;28;20325;-76
2022/07/21 02:41:35;;;;;;;2.00;1.90;;;;;;;20.96;82.27;100326.69;5072065;28;20622;-77
2022/07/21 02:44:02;;;;;;;2.30;2.10;;;;;;;21.31;80.58;100374.84;5071921;28;20208;-77
2022/07/21 02:46:29;;;;;;;2.13;2.03;;;;;;;21.68;79.65;100390.22;5071899;28;20270;-77
2022/07/21 02:48:56;;;;;;;2.10;2.00;;;;;;;21.99;77.98;100415.59;5072161;28;20232;-77
2022/07/21 02:51:22;;;;;;;2.60;2.40;;;;;;;21.83;77.98;100426.41;5072083;28;20674;-77
2022/07/21 02:53:49;;;;;;;2.40;2.30;;;;;;;21.53;78.43;100408.88;5072126;28;20254;-77
2022/07/21 02:56:16;;;;;;;2.60;2.40;;;;;;;21.60;78.23;100391.59;5071478;28;20204;-76
2022/07/21 02:58:42;;;;;;;3.80;3.50;;;;;;;21.61;78.02;100400.41;5071988;28;20274;-77
2022/07/21 03:01:09;;;;;;;5.10;4.70;;;;;;;21.57;77.64;100417.50;5072116;28;20208;-77
2022/07/21 03:03:37;;;;;;;6.30;5.90;;;;;;;21.72;76.01;100437.72;5072076;28;20208;-77
2022/07/21 03:06:04;;;;;;;6.87;6.37;;;;;;;22.02;75.17;100449.94;5071989;28;20201;-77
2022/07/21 03:08:31;;;;;;;5.00;4.70;;;;;;;22.19;74.06;100488.69;5071769;28;20266;-77
2022/07/21 03:10:57;;;;;;;4.90;3.50;;;;;;;22.34;72.79;100510.81;5071606;28;20724;-77
2022/07/21 03:13:24;;;;;;;3.20;2.90;;;;;;;22.49;72.51;100522.19;5071751;28;20256;-78
2022/07/21 03:15:50;;;;;;;2.10;2.00;;;;;;;22.64;71.27;100554.91;5071654;28;20262;-77
2022/07/21 03:18:17;;;;;;;2.10;2.00;;;;;;;22.69;71.05;100579.38;5071630;28;20220;-77
2022/07/21 03:20:46;;;;;;;1.80;1.70;;;;;;;22.70;71.27;100571.31;5071756;28;20209;-76
2022/07/21 03:23:13;;;;;;;1.97;1.87;;;;;;;22.70;70.58;100570.47;5071545;28;20627;-78
2022/07/21 03:25:40;;;;;;;2.27;2.17;;;;;;;22.75;70.25;100579.81;5071503;28;20266;-77
2022/07/21 03:28:07;;;;;;;2.20;2.10;;;;;;;22.72;70.10;100571.22;5071532;28;20224;-76
2022/07/21 03:30:33;;;;;;;2.63;2.47;;;;;;;22.75;70.38;100585.13;5071722;28;20197;-78
2022/07/21 03:33:00;;;;;;;2.97;2.87;;;;;;;22.29;72.72;100550.13;5071656;28;20205;-77
2022/07/21 03:35:27;;;;;;;3.20;2.90;;;;;;;21.59;76.29;100463.41;5071418;28;20689;-77
2022/07/21 03:37:58;;;;;;;3.83;3.53;;;;;;;21.39;78.17;100401.75;5071456;28;20208;-77
2022/07/21 03:40:27;;;;;;;3.43;3.03;;;;;;;21.51;77.73;100404.63;5071549;28;20261;-77
2022/07/21 03:42:56;;;;;;;3.37;3.10;;;;;;;21.52;78.18;100391.22;5071707;28;20205;-77
2022/07/21 03:45:23;;;;;;;2.80;2.60;;;;;;;21.61;76.99;100393.28;5071306;28;20239;-77
2022/07/21 03:47:50;;;;;;;2.80;2.60;;;;;;;21.86;75.85;100420.03;5071176;28;20577;-77
2022/07/21 03:50:17;;;;;;;2.93;2.70;;;;;;;22.07;75.43;100437.19;5071446;28;20733;-78
2022/07/21 03:52:44;;;;;;;3.77;3.47;;;;;;;21.60;78.65;100388.94;5071380;28;20209;-77
2022/07/21 03:55:14;;;;;;;3.90;3.60;;;;;;;21.22;81.41;100323.19;5071074;28;20205;-76
2022/07/21 03:57:42;;;;;;;4.63;4.10;;;;;;;21.09;82.68;100294.88;5071329;28;20216;-76
2022/07/21 04:00:12;;;;;;;5.87;5.40;;;;;;;20.82;84.86;100247.97;5071469;28;20221;-76
2022/07/21 04:02:38;;;;;;;6.53;6.03;;;;;;;20.77;86.51;100228.84;5071169;28;20682;-76
2022/07/21 04:05:06;;;;;;;7.20;6.60;;;;;;;20.72;87.71;100207.94;5071232;28;20747;-76
2022/07/21 04:07:32;;;;;;;9.20;7.50;;;;;;;20.82;88.00;100209.03;5071338;28;20228;-76
2022/07/21 04:09:59;;;;;;;8.37;7.63;;;;;;;21.00;86.90;100249.44;5071039;28;20278;-77
2022/07/21 04:12:27;;;;;;;6.90;6.30;;;;;;;21.28;85.85;100308.66;5071223;28;20625;-76
2022/07/21 04:14:54;;;;;;;7.93;7.33;;;;;;;21.25;85.87;100353.16;5071286;28;20254;-77
2022/07/21 04:17:21;;;;;;;7.93;6.33;;;;;;;21.46;84.82;100362.41;5071268;28;20289;-77
2022/07/21 04:19:48;;;;;;;7.60;7.10;;;;;;;21.54;84.00;100396.44;5071389;28;20224;-77
2022/07/21 04:22:14;;;;;;;8.50;7.90;;;;;;;21.60;83.68;100423.47;5071176;28;20258;-77
2022/07/21 04:24:41;;;;;;;7.10;6.60;;;;;;;21.76;82.68;100451.66;5071603;28;20263;-76
2022/07/21 04:27:07;;;;;;;8.40;7.60;;;;;;;21.91;82.63;100473.72;5074574;28;20604;-77
2022/07/21 04:29:35;;;;;;;8.57;7.80;;;;;;;21.98;81.84;100493.63;5074306;28;20228;-77
2022/07/21 04:32:02;;;;;;;7.27;6.73;;;;;;;22.02;80.89;100524.38;5074737;28;20212;-76
2022/07/21 04:34:29;;;;;;;7.80;7.20;;;;;;;22.08;80.35;100539.06;5074635;28;20200;-78
2022/07/21 04:36:55;;;;;;;7.40;6.90;;;;;;;22.11;80.93;100521.09;5074140;28;20675;-77
2022/07/21 04:39:22;;;;;;;7.63;6.93;;;;;;;22.10;81.48;100521.19;5074521;28;20220;-77
2022/07/21 04:41:48;;;;;;;7.73;7.00;;;;;;;22.15;81.12;100529.75;5074337;28;20266;-77
2022/07/21 04:44:15;;;;;;;9.30;7.27;;;;;;;22.16;81.15;100523.47;5074543;28;20262;-78
2022/07/21 04:46:42;;;;;;;6.83;6.33;;;;;;;22.26;79.65;100534.38;5074054;28;20208;-77
2022/07/21 04:49:09;;;;;;;6.70;6.20;;;;;;;22.33;78.29;100570.25;5074173;28;20262;-77
2022/07/21 04:51:35;;;;;;;7.03;6.43;;;;;;;22.41;77.55;100607.84;5074149;28;20263;-77
2022/07/21 04:54:02;;;;;;;5.93;5.40;;;;;;;22.41;77.65;100611.34;5074319;28;20204;-77
2022/07/21 04:56:28;;;;;;;6.80;6.30;;;;;;;22.43;76.62;100629.03;5073550;28;20212;-77
2022/07/21 04:58:55;;;;;;;5.43;4.93;;;;;;;22.33;76.44;100631.41;5074072;28;20563;-77
2022/07/21 05:01:21;;;;;;;4.70;4.30;;;;;;;22.04;77.40;100609.34;5074252;28;20675;-76
2022/07/21 05:03:49;;;;;;;4.93;4.43;;;;;;;22.11;77.47;100608.84;5074116;28;20208;-76
2022/07/21 05:06:15;;;;;;;4.77;4.37;;;;;;;22.15;77.98;100594.41;5073655;28;20212;-77
2022/07/21 05:08:42;;;;;;;5.07;4.77;;;;;;;22.24;77.29;100597.41;5073731;28;20228;-77
2022/07/21 05:11:08;;;;;;;4.50;4.20;;;;;;;22.36;77.74;100586.03;5073847;28;20213;-75
2022/07/21 05:13:35;;;;;;;4.83;4.40;;;;;;;22.42;76.55;100614.88;5073964;28;20213;-75
2022/07/21 05:16:01;;;;;;;4.97;4.67;;;;;;;21.96;79.12;100562.84;5073624;28;20208;-75
2022/07/21 05:18:28;;;;;;;4.80;4.27;;;;;;;21.89;79.39;100544.75;5073509;28;20225;-75
2022/07/21 05:20:56;;;;;;;5.30;4.90;;;;;;;21.92;80.04;100515.28;5073546;28;20213;-75
2022/07/21 05:23:22;;;;;;;5.13;4.83;;;;;;;22.11;78.71;100536.22;5073826;28;20213;-75
2022/07/21 05:25:48;;;;;;;5.37;4.87;;;;;;;22.28;78.10;100577.66;5073457;28;20254;-75
2022/07/21 05:28:15;;;;;;;4.53;4.20;;;;;;;22.43;78.03;100581.97;5073639;28;20221;-75
2022/07/21 05:30:41;;;;;;;6.17;5.57;;;;;;;22.55;77.46;100609.59;5073668;28;20250;-75
2022/07/21 05:33:08;;;;;;;6.00;5.50;;;;;;;22.59;77.46;100611.91;5073704;28;20201;-75
2022/07/21 05:35:34;;;;;;;4.80;4.40;;;;;;;22.58;77.34;100604.06;5072711;28;20266;-75
2022/07/21 05:38:02;;;;;;;4.70;4.40;;;;;;;22.64;76.79;100613.47;5073471;28;20201;-75
2022/07/21 05:40:29;;;;;;;4.30;4.00;;;;;;;22.62;75.96;100656.13;5073351;28;20288;-75
2022/07/21 05:42:55;;;;;;;3.97;3.67;;;;;;;22.60;76.50;100639.41;5073402;28;20247;-74
2022/07/21 05:45:22;;;;;;;3.57;3.37;;;;;;;22.65;75.28;100669.22;5072946;28;20205;-75
2022/07/21 05:47:48;;;;;;;4.60;3.37;;;;;;;22.67;74.95;100683.28;5073073;28;20225;-75
2022/07/21 05:50:15;;;;;;;3.57;3.37;;;;;;;22.64;75.23;100680.81;5073018;28;20617;-75
2022/07/21 05:52:41;;;;;;;4.03;3.73;;;;;;;22.70;75.64;100668.94;5073479;28;20208;-75
2022/07/21 05:55:10;;;;;;;3.80;3.60;;;;;;;22.74;75.55;100678.41;5072737;28;20204;-76
2022/07/21 05:57:37;;;;;;;3.87;3.50;;;;;;;22.51;76.21;100678.09;5072814;28;20204;-76
2022/07/21 06:00:05;;;;;;;3.43;3.23;;;;;;;22.42;76.38;100670.72;5072269;28;20285;-77
2022/07/21 06:02:32;;;;;;;3.50;3.30;;;;;;;22.26;77.20;100635.41;5072291;28;20193;-75
2022/07/21 06:04:59;;;;;;;3.60;3.37;;;;;;;22.26;76.54;100646.94;5071948;28;20616;-75
2022/07/21 06:07:27;;;;;;;3.77;3.47;;;;;;;22.39;75.77;100660.28;5072405;28;20314;-75
2022/07/21 06:09:54;;;;;;;3.67;3.37;;;;;;;22.16;76.31;100696.28;5071967;28;20307;-75
2022/07/21 06:12:21;;;;;;;3.73;3.47;;;;;;;21.98;77.58;100654.00;5069552;28;20197;-76
2022/07/21 06:14:49;;;;;;;4.40;3.30;;;;;;;21.95;77.80;100614.28;5071962;28;20205;-75
2022/07/21 06:17:15;;;;;;;3.67;3.43;;;;;;;22.08;77.16;100634.78;5071595;28;20205;-76
2022/07/21 06:19:42;;;;;;;3.40;3.20;;;;;;;22.06;77.35;100637.56;5072141;28;20350;-75
2022/07/21 06:22:08;;;;;;;3.70;3.40;;;;;;;22.12;77.70;100647.78;5071964;28;20781;-76
2022/07/21 06:24:35;;;;;;;3.40;3.13;;;;;;;22.16;76.73;100672.34;5071926;28;21682;-76
2022/07/21 06:27:01;;;;;;;4.00;3.70;;;;;;;22.21;76.77;100655.16;5069118;28;20205;-76
2022/07/21 06:29:29;;;;;;;4.07;3.77;;;;;;;21.83;78.63;100604.44;5071527;28;20221;-76
2022/07/21 06:31:55;;;;;;;3.60;3.30;;;;;;;21.68;79.70;100576.19;5071753;28;20633;-76
2022/07/21 06:34:22;;;;;;;4.77;3.90;;;;;;;21.73;79.66;100571.44;5071943;28;20193;-75
2022/07/21 06:36:48;;;;;;;3.63;3.33;;;;;;;21.74;79.58;100591.75;5071929;28;20243;-76
2022/07/21 06:39:15;;;;;;;3.40;3.20;;;;;;;21.81;78.94;100614.31;5071872;28;20286;-76
2022/07/21 06:41:41;;;;;;;3.60;3.40;;;;;;;21.99;77.93;100653.03;5069021;28;20193;-76
2022/07/21 06:44:08;;;;;;;3.60;3.37;;;;;;;22.15;76.81;100692.78;5071466;28;20204;-75
2022/07/21 06:46:36;;;;;;;2.97;2.87;;;;;;;22.06;76.76;100698.69;5071405;28;20201;-76
2022/07/21 06:49:02;;;;;;;3.37;3.17;;;;;;;22.27;75.79;100707.13;5068592;28;20266;-75
2022/07/21 06:51:29;;;;;;;3.40;3.20;;;;;;;22.12;76.00;100718.69;5071661;28;20246;-76
2022/07/21 06:53:56;;;;;;;3.20;2.90;;;;;;;21.94;77.10;100700.31;5071555;28;20208;-76
2022/07/21 06:56:22;;;;;;;3.33;2.77;;;;;;;22.02;76.81;100686.53;5070998;28;20242;-76
2022/07/21 06:58:49;;;;;;;2.73;2.63;;;;;;;22.03;76.75;100685.59;5071165;28;20971;-76
2022/07/21 07:01:17;;;;;;;3.57;3.27;;;;;;;21.95;77.29;100685.22;5071836;28;20193;-75
2022/07/21 07:03:45;;;;;;;2.97;2.77;;;;;;;22.17;76.49;100682.06;5069367;28;20736;-75
2022/07/21 07:06:12;;;;;;;3.00;2.80;;;;;;;22.39;75.64;100700.19;5071203;28;20197;-76
2022/07/21 07:08:39;;;;;;;3.33;3.07;;;;;;;22.18;75.27;100739.63;5071225;28;20752;-76
2022/07/21 07:11:06;;;;;;;4.07;3.17;;;;;;;21.93;77.12;100663.19;5071075;28;20201;-75
2022/07/21 07:13:32;;;;;;;3.00;2.90;;;;;;;21.57;79.34;100627.34;5071531;28;20200;-76
2022/07/21 07:15:59;;;;;;;3.33;3.13;;;;;;;21.61;79.41;100597.81;5071106;28;20204;-76
2022/07/21 07:18:26;;;;;;;3.23;2.90;;;;;;;21.78;78.85;100627.78;5071063;28;20224;-76
2022/07/21 07:20:53;;;;;;;3.40;3.20;;;;;;;21.88;78.61;100636.88;5071297;28;20197;-76
2022/07/21 07:23:20;;;;;;;3.10;2.90;;;;;;;21.92;77.84;100659.69;5071152;28;20258;-76
2022/07/21 07:25:47;;;;;;;3.17;2.97;;;;;;;22.04;76.94;100678.47;5070944;28;20193;-76
2022/07/21 07:28:13;;;;;;;3.00;2.80;;;;;;;22.11;76.64;100688.59;5071189;28;20553;-76
2022/07/21 07:30:40;;;;;;;3.30;3.10;;;;;;;22.18;76.19;100711.22;5071182;28;20204;-76
2022/07/21 07:33:07;;;;;;;3.00;2.80;;;;;;;22.18;75.89;100727.16;5071348;28;20622;-76
2022/07/21 07:35:33;;;;;;;3.07;2.87;;;;;;;22.30;75.88;100720.25;5070987;28;20197;-76
2022/07/21 07:38:01;;;;;;;3.10;2.90;;;;;;;22.34;75.46;100747.50;5071253;28;20208;-76
2022/07/21 07:40:28;;;;;;;3.07;2.27;;;;;;;21.92;76.69;100727.91;5070919;28;20258;-76
2022/07/21 07:42:54;;;;;;;2.37;2.20;;;;;;;21.69;78.04;100679.72;5071153;28;20231;-76
2022/07/21 07:45:21;;;;;;;2.30;2.10;;;;;;;21.77;77.12;100698.69;5070593;28;20197;-76
2022/07/21 07:47:47;;;;;;;2.80;1.73;;;;;;;21.46;77.92;100693.53;5070993;28;20262;-76
2022/07/21 07:50:14;;;;;;;1.90;1.80;;;;;;;21.31;78.34;100676.72;5070869;28;20628;-75
2022/07/21 07:52:42;;;;;;;2.10;1.83;;;;;;;21.37;78.59;100661.25;5071133;28;20284;-76
2022/07/21 07:55:12;;;;;;;1.90;1.80;;;;;;;21.46;78.73;100665.19;5071003;28;20485;-76
2022/07/21 07:57:39;;;;;;;2.37;2.17;;;;;;;21.22;79.48;100647.09;5070725;28;20197;-76
2022/07/21 08:00:08;;;;;;;2.03;1.93;;;;;;;21.44;78.74;100661.75;5073905;28;20291;-76
2022/07/21 08:02:35;;;;;;;4.20;2.20;;;;;;;21.38;78.30;100678.88;5074666;28;20215;-77
2022/07/21 08:05:01;;;;;;;1.90;1.80;;;;;;;21.36;78.15;100693.22;5074324;28;20744;-76
2022/07/21 08:07:27;;;;;;;1.80;1.70;;;;;;;21.30;78.40;100699.75;5074765;28;20251;-76
2022/07/21 08:09:54;;;;;;;2.40;2.20;;;;;;;21.25;79.69;100664.66;5074696;28;20221;-76
2022/07/21 08:12:22;;;;;;;2.43;2.23;;;;;;;21.23;81.08;100616.94;5074893;28;20201;-76
2022/07/21 08:14:48;;;;;;;2.10;2.00;;;;;;;21.20;81.42;100622.44;5076860;28;20193;-76
2022/07/21 08:17:16;;;;;;;2.40;2.30;;;;;;;20.90;83.65;100558.78;5074905;28;20219;-78
2022/07/21 08:19:43;;;;;;;2.17;2.07;;;;;;;21.15;82.41;100582.06;5077553;28;20224;-80
2022/07/21 08:22:09;;;;;;;1.90;1.80;;;;;;;21.38;81.15;100616.97;5081392;28;20212;-81
2022/07/21 08:24:36;;;;;;;2.10;2.00;;;;;;;21.00;81.85;100620.13;5080643;28;20254;-81
2022/07/21 08:27:02;;;;;;;2.00;1.90;;;;;;;21.20;81.17;100633.06;5080033;28;20200;-81
2022/07/21 08:29:30;;;;;;;2.00;1.90;;;;;;;21.40;80.51;100653.09;5082506;28;20273;-80
2022/07/21 08:31:56;;;;;;;2.03;1.93;;;;;;;21.44;79.80;100671.53;5081789;28;20209;-81
2022/07/21 08:34:23;;;;;;;2.57;2.37;;;;;;;21.64;78.65;100702.19;5081461;28;20204;-82
2022/07/21 08:36:50;;;;;;;2.30;2.20;;;;;;;21.47;78.63;100719.19;5079898;28;20698;-83
2022/07/21 08:39:16;;;;;;;2.30;2.20;;;;;;;21.26;79.27;100706.19;5080708;28;20225;-82
2022/07/21 08:41:43;;;;;;;2.37;2.23;;;;;;;21.42;79.18;100690.19;5079816;28;20205;-82
2022/07/21 08:44:10;;;;;;;2.00;1.90;;;;;;;21.56;78.54;100718.59;5080299;28;20540;-81
2022/07/21 08:46:40;;;;;;;1.83;1.73;;;;;;;21.86;77.70;100739.78;5079343;28;20220;-82
2022/07/21 08:49:07;;;;;;;2.53;2.43;;;;;;;21.85;75.98;100788.59;5080043;28;20282;-81
2022/07/21 08:51:35;;;;;;;3.00;2.67;;;;;;;21.57;77.38;100762.84;5080444;28;20208;-81
2022/07/21 08:54:01;;;;;;;2.30;2.20;;;;;;;21.79;77.44;100743.78;5080585;28;20228;-80
2022/07/21 08:56:28;;;;;;;3.23;3.03;;;;;;;21.80;78.06;100737.50;5079504;28;20567;-82
2022/07/21 08:58:54;;;;;;;4.10;3.80;;;;;;;21.74;77.45;100745.84;5080363;28;20295;-83
2022/07/21 09:01:23;;;;;;;3.73;3.43;;;;;;;21.54;77.41;100749.72;5079861;28;20204;-81
2022/07/21 09:03:51;;;;;;;4.63;4.37;;;;;;;21.49;77.61;100728.75;5080567;28;20301;-80
2022/07/21 09:06:18;;;;;;;5.50;5.13;;;;;;;21.65;76.92;100752.59;5080144;28;20205;-80
2022/07/21 09:08:46;;;;;;;5.87;5.37;;;;;;;21.65;76.17;100783.63;5079398;28;20611;-81
2022/07/21 09:11:17;;;;;;;7.00;6.50;;;;;;;21.89;75.68;100802.56;5078734;28;20205;-82
2022/07/21 09:13:46;;;;;;;7.23;6.83;;;;;;;21.86;75.37;100814.19;5080080;28;20635;-81
2022/07/21 09:16:13;;;;;;;6.67;6.27;;;;;;;21.97;74.65;100827.72;5079021;28;20702;-80
2022/07/21 09:18:52;;;;;;;6.37;5.97;;;;;;;22.10;73.48;100859.75;5080376;28;20282;-81
2022/07/21 09:21:19;;;;;;;7.30;6.90;;;;;;;21.95;72.74;100877.44;5081010;28;20232;-80
2022/07/21 09:23:46;;;;;;;7.40;7.00;;;;;;;22.12;72.73;100881.78;5081405;28;20250;-81
2022/07/21 09:26:12;;;;;;;7.70;7.27;;;;;;;22.23;71.69;100910.38;5079188;28;20255;-82
2022/07/21 09:28:41;;;;;;;9.57;8.97;;;;;;;22.02;72.59;100896.53;5079296;28;20637;-82
2022/07/21 09:31:09;;;;;;;7.70;7.23;;;;;;;22.14;70.76;100922.41;5079719;28;20234;-81
2022/07/21 09:33:38;;;;;;;8.63;8.03;;;;;;;22.20;70.18;100945.13;5079099;28;20212;-81
2022/07/21 09:36:09;;;;;;;7.17;6.70;;;;;;;22.23;69.19;100987.50;5079350;28;20255;-81
2022/07/21 09:38:37;;;;;;;6.07;5.67;;;;;;;22.29;68.19;101008.44;5079263;28;20233;-82
2022/07/21 09:41:13;;;;;;;5.43;5.13;;;;;;;22.15;67.52;101034.94;5078831;28;20205;-82
2022/07/21 09:43:43;;;;;;;5.03;4.73;;;;;;;22.28;67.48;101033.34;5079239;28;20211;-83
2022/07/21 09:46:16;;;;;;;5.43;5.13;;;;;;;22.26;67.83;101035.22;5078905;28;20261;-80
2022/07/21 09:48:44;;;;;;;4.87;4.57;;;;;;;22.47;68.15;101010.97;5078881;28;20225;-83
2022/07/21 09:51:27;;;;;;;5.57;5.17;;;;;;;22.59;67.71;101015.53;5079360;28;20209;-83
2022/07/21 09:53:57;;;;;;;4.77;4.47;;;;;;;22.60;66.11;101047.38;5079363;28;20632;-81
2022/07/21 09:56:25;;;;;;;4.70;4.50;;;;;;;22.73;65.85;101059.94;5078175;28;20217;-84
2022/07/21 09:58:54;;;;;;;4.50;4.20;;;;;;;22.79;65.87;101075.53;5078491;28;20270;-83
2022/07/21 10:01:21;;;;;;;4.03;3.83;;;;;;;22.83;64.18;101092.19;5078080;28;20259;-82
2022/07/21 10:03:49;;;;;;;4.67;4.37;;;;;;;22.93;63.89;101114.66;5076046;28;20205;-83
2022/07/21 10:06:18;;;;;;;4.40;4.10;;;;;;;22.91;62.79;101144.06;5078282;28;20200;-81
2022/07/21 10:08:46;;;;;;;4.60;4.30;;;;;;;23.12;63.20;101152.56;5077641;28;20235;-80
2022/07/21 10:11:13;;;;;;;4.57;4.27;;;;;;;23.29;62.24;101167.56;5077294;28;20284;-83
2022/07/21 10:13:40;;;;;;;4.37;4.07;;;;;;;23.49;60.57;101194.78;5077086;28;20199;-82
2022/07/21 10:16:08;;;;;;;4.37;4.10;;;;;;;23.71;59.63;101218.31;5078664;28;20334;-82
2022/07/21 10:18:56;;;;;;;4.63;4.37;;;;;;;23.82;59.35;101244.34;5078447;28;20228;-83
2022/07/21 10:21:31;;;;;;;4.57;4.37;;;;;;;23.87;58.40;101252.91;5077636;28;20254;-78
2022/07/21 10:23:59;;;;;;;4.30;4.10;;;;;;;23.90;57.33;101309.56;5077902;28;20205;-80
2022/07/21 10:26:25;;;;;;;5.07;4.77;;;;;;;23.99;56.48;101329.50;5075507;28;20208;-81
2022/07/21 10:28:52;;;;;;;5.40;5.00;;;;;;;23.97;57.43;101305.59;5084692;28;20304;-79
2022/07/21 10:31:20;;;;;;;5.63;5.33;;;;;;;23.97;57.47;101286.06;5076682;28;20228;-79
2022/07/21 10:33:56;;;;;;;4.83;4.53;;;;;;;24.13;56.25;101309.97;5073457;28;20213;-79
2022/07/21 10:36:42;;;;;;;5.20;4.90;;;;;;;24.23;56.82;101300.44;5074340;28;20201;-79
2022/07/21 10:39:28;;;;;;;5.73;5.43;;;;;;;24.50;56.47;101300.56;5076505;28;20235;-78
2022/07/21 10:41:58;;;;;;;6.63;6.03;;;;;;;24.72;55.75;101324.06;5072300;28;20211;-78
2022/07/21 10:44:45;;;;;;;5.83;5.33;;;;;;;24.90;54.71;101353.22;5073037;28;20205;-79
2022/07/21 10:47:14;;;;;;;5.47;5.17;;;;;;;24.89;53.40;101372.84;5072507;28;20212;-77
2022/07/21 10:49:47;;;;;;;5.77;5.40;;;;;;;24.62;54.41;101351.41;5072440;28;20259;-78
2022/07/21 10:52:52;;;;;;;5.57;5.13;;;;;;;24.37;55.00;101334.25;5072172;28;20573;-77
2022/07/21 10:55:26;;;;;;;5.40;5.00;;;;;;;24.30;56.10;101296.44;5071893;28;20287;-78
2022/07/21 10:58:12;;;;;;;5.50;5.20;;;;;;;24.45;56.36;101262.56;5084411;28;20208;-78
2022/07/21 11:00:39;;;;;;;5.17;4.87;;;;;;;24.25;57.78;101215.81;5081398;28;20676;-78
2022/07/21 11:03:16;;;;;;;5.27;4.97;;;;;;;24.35;57.58;101205.41;5073030;28;20208;-78
2022/07/21 11:06:22;;;;;;;4.60;4.30;;;;;;;24.81;56.02;101228.28;5072398;28;20239;-77
2022/07/21 11:08:49;;;;;;;5.00;4.70;;;;;;;24.78;55.11;101283.59;5074854;28;20227;-78
2022/07/21 11:11:19;;;;;;;5.47;5.07;;;;;;;24.85;54.96;101301.88;5083303;28;20232;-77
2022/07/21 11:14:05;;;;;;;5.70;5.30;;;;;;;24.73;55.01;101299.03;5071988;28;20208;-76
2022/07/21 11:17:09;;;;;;;5.27;4.93;;;;;;;24.58;54.61;101308.06;5075196;28;20666;-77
2022/07/21 11:19:39;;;;;;;6.10;5.70;;;;;;;24.31;55.84;101281.28;5078089;28;20648;-78
2022/07/21 11:22:09;;;;;;;6.30;5.80;;;;;;;24.36;56.31;101265.81;5072635;28;20274;-78
2022/07/21 11:24:36;;;;;;;6.40;6.00;;;;;;;24.25;57.38;101239.00;5073629;28;20209;-80
2022/07/21 11:27:06;;;;;;;6.60;6.20;;;;;;;24.13;59.48;101188.13;5078280;28;20207;-81
2022/07/21 11:29:34;;;;;;;6.63;6.23;;;;;;;24.34;62.44;101120.97;5091536;28;20234;-80
2022/07/21 11:32:02;;;;;;;7.50;6.67;;;;;;;24.39;60.99;101044.13;5074082;28;20223;-79